• Join FlightAware (Why Join?)
  • Login
  • US Flag 
04:24AM EDT


 

Airport Tracker/Info


-or-


 

Live Flight TrackerFlight Track Log ✈ N682RW ✈ 16-Apr-2013 ✈ KDTW - CYYC

Flight Track Log - Related Links

Times and Time Zones

All times are in EDT time to prevent confusion due to time zone crossing. See the N682RW flight status page for this flight to view local times or setup timezone preferences in your user account.

Time Position Orientation Groundspeed Altitude Reporting Facility
EDT Latitude Longitude Course Direction KTS MPH feet Rate Location/Type
03:11PM 42.1869 -83.3575 226° Southwest 186 214 1,400  Level Cleveland Center
03:11PM 42.1653 -83.3875 226° Southwest 211 243 2,600 2,160 Climbing Cleveland Center
03:12PM 42.1114 -83.4633 226° Southwest 262 302 5,200 2,580 Climbing Cleveland Center
03:13PM 42.1161 -83.5253 276° West 252 290 7,900 2,520 Climbing Cleveland Center
03:14PM 42.1517 -83.6053 301° West 252 290 10,100 1,260 Climbing Cleveland Center
03:15PM 42.1928 -83.6969 301° West 268 308 10,500 900 Climbing Cleveland Center
03:16PM 42.2403 -83.7947 303° West 292 336 11,900 1,920 Climbing Cleveland Center
03:17PM 42.2875 -83.8953 302° West 306 352 14,400 2,460 Climbing Cleveland Center
03:18PM 42.3197 -84.0036 292° West 311 358 16,900 2,400 Climbing Cleveland Center
03:19PM 42.3414 -84.1117 285° West 311 358 19,200 1,560 Climbing Cleveland Center
03:20PM 42.3692 -84.2256 288° West 311 358 20,100 1,200 Climbing Cleveland Center
03:21PM 42.3964 -84.3481 287° West 324 373 21,700 1,620 Climbing Cleveland Center
03:22PM 42.4236 -84.4736 286° West 336 387 23,400 1,500 Climbing Cleveland Center
03:23PM 42.4356 -84.6067 277° West 347 399 24,700 1,320 Climbing Cleveland Center
03:24PM 42.4400 -84.6975 274° West 355 409 25,700 1,200 Climbing Chicago Center
03:25PM 42.4439 -84.8331 272° West 359 413 26,900 1,140 Climbing Chicago Center
03:26PM 42.4469 -84.9733 272° West 370 426 28,100 1,140 Climbing Chicago Center
03:27PM 42.4506 -85.1433 272° West 374 430 29,300 1,020 Climbing Chicago Center
03:28PM 42.4536 -85.2869 272° West 380 437 30,300 1,080 Climbing Chicago Center
03:29PM 42.4553 -85.4289 271° West 379 436 31,600 780 Climbing Chicago Center
03:30PM 42.4578 -85.5703 271° West 376 433 32,000 180 Climbing Chicago Center
03:31PM 42.4658 -85.7103 275° West 376 433 32,000  Level Chicago Center
03:32PM 42.5217 -85.8422 300° West 410 472 32,000  Level Chicago Center
03:33PM 42.5947 -85.9639 309° West 413 475 32,000  Level Chicago Center
03:34PM 42.6236 -86.1053 286° West 391 450 32,000  Level Chicago Center
03:35PM 42.6747 -86.2400 297° West 397 457 32,000  Level Chicago Center
03:36PM 42.7389 -86.4017 298° West 401 461 32,000  Level Chicago Center
03:37PM 42.7919 -86.5375 298° West 404 465 32,000  Level Chicago Center
03:38PM 42.8439 -86.6733 298° West 404 465 32,000  Level Chicago Center
03:39PM 42.8956 -86.8072 298° West 398 458 32,000  Level Chicago Center
03:40PM 42.9478 -86.9433 298° West 404 465 32,000  Level Chicago Center
03:41PM 42.9989 -87.0772 298° West 399 459 32,000  Level Chicago Center
03:42PM 43.0506 -87.2111 298° West 399 459 32,000  Level Chicago Center
03:43PM 43.1011 -87.3458 297° West 398 458 32,000  Level Chicago Center
03:44PM 43.1561 -87.4889 298° West 400 460 32,000  Level Chicago Center
03:45PM 43.2144 -87.6461 297° West 399 459 32,000  Level Chicago Center
03:46PM 43.2647 -87.7811 297° West 399 459 32,000  Level Chicago Center
03:48PM 43.3156 -87.9164 297° West 401 461 32,000  Level Chicago Center
03:49PM 43.3653 -88.0500 297° West 396 456 32,000  Level Chicago Center
03:50PM 43.4142 -88.1833 297° West 394 453 32,000  Level Chicago Center
03:51PM 43.4706 -88.3375 297° West 391 450 32,000  Level Chicago Center
03:52PM 43.5100 -88.4456 297° West 395 455 32,000  Level Chicago Center
03:53PM 43.5658 -88.5992 297° West 392 451 32,000  Level Chicago Center
03:54PM 43.6128 -88.7325 296° West 389 448 32,000  Level Chicago Center
03:55PM 43.6608 -88.8644 297° West 389 448 32,000  Level Minneapolis Center
03:56PM 43.7156 -89.0194 296° West 384 442 32,000  Level Chicago Center
03:57PM 43.7544 -89.1303 296° West 387 445 32,000  Level Minneapolis Center
03:58PM 43.8014 -89.2633 296° West 385 443 32,000  Level Minneapolis Center
03:59PM 43.8478 -89.3942 296° West 382 440 32,000  Level Minneapolis Center
04:00PM 43.8933 -89.5261 296° West 379 436 32,000  Level Minneapolis Center
04:01PM 43.9408 -89.6581 297° West 382 440 32,000  Level Minneapolis Center
04:02PM 43.9925 -89.8122 295° West 379 436 32,000  Level Minneapolis Center
04:03PM 44.0389 -89.9442 296° West 379 436 32,000  Level Minneapolis Center
04:04PM 44.0839 -90.0756 296° West 379 436 32,000  Level Minneapolis Center
04:05PM 44.1300 -90.2097 296° West 382 440 32,000  Level Minneapolis Center
04:06PM 44.1750 -90.3408 296° West 378 435 32,000  Level Minneapolis Center
04:07PM 44.2197 -90.4747 295° West 380 437 32,000  Level Minneapolis Center
04:08PM 44.2631 -90.6053 295° West 377 434 32,000  Level Minneapolis Center
04:09PM 44.3147 -90.7608 295° West 374 430 32,000  Level Minneapolis Center
04:10PM 44.3603 -90.8944 296° West 378 435 32,000  Level Minneapolis Center
04:11PM 44.4017 -91.0214 295° West 375 432 32,000  Level Minneapolis Center
04:12PM 44.4497 -91.1511 297° West 377 434 32,000  Level Minneapolis Center
04:13PM 44.5094 -91.2736 304° West 381 438 32,000  Level Minneapolis Center
04:14PM 44.5644 -91.3986 302° West 379 436 32,000  Level Minneapolis Center
04:15PM 44.6417 -91.5733 302° West 379 436 32,000  Level Minneapolis Center
04:17PM 44.6967 -91.6986 302° West 378 435 32,000  Level Minneapolis Center
04:18PM 44.7614 -91.8478 301° West 377 434 32,000  Level Minneapolis Center
04:19PM 44.8164 -91.9731 302° West 377 434 32,000  Level Minneapolis Center
04:20PM 44.8717 -92.0997 302° West 379 436 32,000  Level Minneapolis Center
04:21PM 44.9378 -92.2508 302° West 380 437 32,000  Level Minneapolis Center
04:22PM 44.9914 -92.3750 301° West 378 435 32,000  Level Minneapolis Center
04:23PM 45.0444 -92.4994 301° West 375 432 32,000  Level Minneapolis Center
04:24PM 45.0983 -92.6244 301° West 375 432 32,000  Level Minneapolis Center
04:25PM 45.1514 -92.7500 301° West 375 432 32,000  Level Minneapolis Center
04:26PM 45.2150 -92.8983 301° West 372 428 32,000  Level Minneapolis Center
04:27PM 45.2683 -93.0239 301° West 374 430 32,000  Level Minneapolis Center
04:28PM 45.3203 -93.1492 301° West 372 428 32,000  Level Minneapolis Center
04:29PM 45.3731 -93.2756 301° West 375 432 32,000  Level Minneapolis Center
04:30PM 45.4258 -93.4028 301° West 376 433 32,000  Level Minneapolis Center
04:31PM 45.4889 -93.5550 301° West 376 433 32,000  Level Minneapolis Center
04:32PM 45.5406 -93.6811 300° West 372 428 32,000  Level Minneapolis Center
04:33PM 45.5925 -93.8078 300° West 373 429 32,000  Level Minneapolis Center
04:34PM 45.6444 -93.9361 300° West 373 429 32,000  Level Minneapolis Center
04:35PM 45.6961 -94.0639 300° West 374 430 32,000  Level Minneapolis Center
04:36PM 45.7583 -94.2172 300° West 374 430 32,000  Level Minneapolis Center
04:37PM 45.8100 -94.3447 300° West 373 429 32,000  Level Minneapolis Center
04:38PM 45.8606 -94.4703 300° West 369 425 32,000  Level Minneapolis Center
04:39PM 45.9111 -94.5986 300° West 370 426 32,000  Level Minneapolis Center
04:40PM 45.9614 -94.7258 300° West 368 423 32,000  Level Minneapolis Center
04:41PM 46.0111 -94.8544 299° West 369 425 32,000  Level Minneapolis Center
04:42PM 46.0717 -95.0069 300° West 368 423 32,000  Level Minneapolis Center
04:43PM 46.1178 -95.1269 299° West 368 423 32,000  Level Minneapolis Center
04:44PM 46.1683 -95.2550 300° West 369 425 32,000  Level Minneapolis Center
04:45PM 46.2139 -95.3739 299° West 369 425 32,000  Level Minneapolis Center
04:47PM 46.2772 -95.5392 299° West 368 423 32,000  Level Minneapolis Center
04:48PM 46.3267 -95.6669 299° West 366 421 32,000  Level Minneapolis Center
04:49PM 46.3756 -95.7967 299° West 368 423 32,000  Level Minneapolis Center
04:50PM 46.4319 -95.9458 299° West 379 436 32,000  Level Minneapolis Center
04:51PM 46.4917 -96.1036 299° West 373 429 32,000  Level Minneapolis Center
04:52PM 46.5411 -96.2333 299° West 371 427 32,000  Level Minneapolis Center
04:53PM 46.5889 -96.3647 298° West 370 426 32,000  Level Minneapolis Center
04:54PM 46.6381 -96.4947 299° West 370 426 32,000  Level Minneapolis Center
04:55PM 46.6867 -96.6272 298° West 372 428 32,000  Level Minneapolis Center
04:56PM 46.7456 -96.7911 298° West 381 438 32,000  Level Minneapolis Center
04:57PM 46.8056 -96.9533 298° West 381 438 32,000  Level Minneapolis Center
04:58PM 46.8553 -97.0894 298° West 383 441 32,000  Level Minneapolis Center
04:59PM 46.9058 -97.2269 298° West 386 444 32,100 420 Climbing Minneapolis Center
05:00PM 46.9544 -97.3628 298° West 380 437 32,900 720 Climbing Minneapolis Center
05:01PM 47.0050 -97.5019 298° West 385 443 33,700 480 Climbing Minneapolis Center
05:02PM 47.0636 -97.6653 298° West 380 437 34,000 120 Climbing Minneapolis Center
05:03PM 47.1128 -97.8044 297° West 381 438 34,000  Level Minneapolis Center
05:05PM 47.1614 -97.9439 297° West 383 441 34,000  Level Minneapolis Center
05:06PM 47.2117 -98.0861 298° West 387 445 34,000  Level Minneapolis Center
05:07PM 47.2622 -98.2297 297° West 390 449 34,000  Level Minneapolis Center
05:08PM 47.3106 -98.3728 297° West 389 448 34,000  Level Minneapolis Center
05:09PM 47.3600 -98.5153 297° West 389 448 34,000  Level Minneapolis Center
05:10PM 47.4081 -98.6594 296° West 390 449 34,000 -60 Level Minneapolis Center
05:11PM 47.4672 -98.8333 297° West 393 452 33,900  Descending Minneapolis Center
05:12PM 47.5161 -98.9767 297° West 392 451 34,000  Climbing Minneapolis Center
05:13PM 47.5650 -99.1231 296° West 395 455 34,000  Level Minneapolis Center
05:14PM 47.6147 -99.2728 296° West 402 463 34,000  Level Minneapolis Center
05:15PM 47.6747 -99.4503 297° West 403 464 34,000  Level Minneapolis Center
05:16PM 47.7233 -99.6011 296° West 404 465 34,000  Level Minneapolis Center
05:17PM 47.7731 -99.7503 296° West 404 465 34,000  Level Minneapolis Center
05:18PM 47.8306 -99.9347 295° West 411 473 34,000  Level Minneapolis Center
05:19PM 47.8797 -100.0850 296° West 407 468 34,000  Level Minneapolis Center
05:20PM 47.9261 -100.2358 295° West 404 465 34,000  Level Minneapolis Center
05:21PM 47.9731 -100.3847 295° West 401 461 34,000  Level Minneapolis Center
05:22PM 48.0214 -100.5358 296° West 404 465 34,000  Level Minneapolis Center
05:23PM 48.0681 -100.6897 294° West 407 468 34,000  Level Minneapolis Center
05:24PM 48.1194 -100.8433 297° West 411 473 34,000  Level Minneapolis Center
05:25PM 48.1769 -101.0314 295° West 415 478 34,000  Level Minneapolis Center
05:27PM 48.2236 -101.1819 295° West 417 480 34,000  Level Minneapolis Center
05:28PM 48.2850 -101.3714 296° West 420 483 34,000  Level Minneapolis Center
05:29PM 48.3419 -101.5281 299° West 426 490 34,000  Level Minneapolis Center
05:30PM 48.3989 -101.6844 299° West 428 493 34,000  Level Minneapolis Center
05:31PM 48.4669 -101.8728 299° West 429 494 34,000  Level Minneapolis Center
05:32PM 48.5217 -102.0319 297° West 430 495 34,000  Level Minneapolis Center
05:33PM 48.5775 -102.1903 298° West 431 496 34,000  Level Minneapolis Center
05:34PM 48.6333 -102.3497 298° West 432 497 34,000  Level Minneapolis Center
05:34PM 48.6500 -102.4167 291° West 430 495 34,000  Level Winnipeg Center
05:35PM 48.7000 -102.6000 293° West 430 495 34,000  Level Winnipeg Center
05:36PM 48.7431 -102.6714 312° West 433 498 34,000  Level Minneapolis Center
05:37PM 48.8081 -102.8703 296° West 438 504 34,000  Level Minneapolis Center
05:38PM 48.8361 -103.0514 283° West 445 512 34,000  Level Minneapolis Center
05:39PM 48.8669 -103.2242 285° West 437 503 34,000  Level Minneapolis Center
05:40PM 48.8833 -103.4500 276° West 430 495 34,000  Level Winnipeg Center
05:41PM 48.9167 -103.6167 287° West 430 495 34,000  Level Winnipeg Center
05:42PM 48.9500 -103.8000 286° West 430 495 34,000  Level Winnipeg Center
05:43PM 48.9833 -103.9833 286° West 440 506 34,000  Level Winnipeg Center
05:44PM 49.0167 -104.1667 286° West 440 506 34,000  Level Winnipeg Center
05:45PM 49.0333 -104.3500 278° West 440 506 34,000  Level Winnipeg Center
05:46PM 49.0667 -104.5333 286° West 440 506 34,000  Level Winnipeg Center
05:47PM 49.1167 -104.7167 293° West 450 518 34,000  Level Winnipeg Center
05:48PM 49.1333 -104.9000 278° West 450 518 34,000  Level Winnipeg Center
05:49PM 49.1667 -105.0667 287° West 440 506 34,000  Level Winnipeg Center
05:50PM 49.1833 -105.2667 277° West 440 506 34,000  Level Winnipeg Center
05:51PM 49.2333 -105.4333 295° West 440 506 34,000  Level Winnipeg Center
05:52PM 49.2500 -105.6333 277° West 440 506 34,000  Level Winnipeg Center
05:53PM 49.2833 -105.8000 287° West 440 506 34,000  Level Winnipeg Center
05:54PM 49.3000 -106.0167 277° West 440 506 34,000  Level Winnipeg Center
05:55PM 49.3333 -106.1667 289° West 450 518 34,000  Level Winnipeg Center
05:56PM 49.3500 -106.3500 278° West 450 518 34,000  Level Winnipeg Center
05:57PM 49.3667 -106.4167 291° West 450 518 34,000  Level Edmonton Center
05:57PM 49.3833 -106.5500 281° West 450 518 34,000  Level Winnipeg Center
05:58PM 49.4333 -106.7333 293° West 450 518 34,000  Level Winnipeg Center
05:59PM 49.4500 -106.9167 278° West 440 506 34,000  Level Winnipeg Center
06:00PM 49.4833 -107.1000 286° West 450 518 34,000  Level Winnipeg Center
06:01PM 49.5000 -107.2833 278° West 450 518 34,000  Level Winnipeg Center
06:02PM 49.5333 -107.4833 284° West 450 518 34,000  Level Winnipeg Center
06:03PM 49.5500 -107.6667 278° West 450 518 34,000  Level Winnipeg Center
06:04PM 49.5833 -107.8500 286° West 450 518 34,000  Level Winnipeg Center
06:05PM 49.6000 -108.0500 277° West 450 518 34,000  Level Winnipeg Center
06:06PM 49.6333 -108.2500 285° West 450 518 34,000  Level Winnipeg Center
06:07PM 49.6500 -108.4167 279° West 450 518 34,000  Level Winnipeg Center
06:08PM 49.6833 -108.6333 283° West 450 518 34,000  Level Winnipeg Center
06:09PM 49.7000 -108.8167 278° West 460 529 34,000  Level Winnipeg Center
06:10PM 49.7333 -109.0167 285° West 450 518 34,000  Level Winnipeg Center
06:11PM 49.7500 -109.2000 278° West 450 518 34,000  Level Winnipeg Center
06:12PM 49.7500 -109.2333 270° West 450 518 34,000  Level Edmonton Center
06:12PM 49.7667 -109.3833 280° West 450 518 34,000  Level Winnipeg Center
06:13PM 49.8000 -109.5833 285° West 450 518 34,000  Level Winnipeg Center
06:14PM 49.8000 -109.6333 270° West 450 518 34,000  Level Edmonton Center
06:15PM 49.8167 -109.8167 278° West 450 518 34,000  Level Edmonton Center
06:16PM 49.8333 -110.0000 278° West 450 518 34,000  Level Edmonton Center
06:16PM 49.8667 -110.1500 289° West 450 518 34,000  Level Winnipeg Center
06:17PM 49.8667 -110.2167 270° West 450 518 34,000  Level Edmonton Center
06:17PM 49.8833 -110.3333 283° West 460 529 34,000  Level Winnipeg Center
06:18PM 49.8833 -110.4000 270° West 450 518 34,000  Level Edmonton Center
06:19PM 49.9167 -110.6000 285° West 450 518 34,000  Level Edmonton Center
06:20PM 49.9333 -110.8000 277° West 450 518 34,000  Level Edmonton Center
06:21PM 49.9667 -110.9667 287° West 450 518 34,000  Level Edmonton Center
06:22PM 50.0000 -111.1833 284° West 450 518 34,000  Level Edmonton Center
06:23PM 50.0333 -111.3500 287° West 450 518 34,000 -540 Level Edmonton Center
06:24PM 50.0833 -111.5333 293° West 450 518 33,000 -1,320 Descending Edmonton Center
06:25PM 50.1167 -111.7167 286° West 450 518 31,400 -1,500 Descending Edmonton Center
06:26PM 50.1500 -111.9167 285° West 460 529 30,100 -1,320 Descending Edmonton Center
06:27PM 50.2000 -112.1000 293° West 450 518 28,800 -1,680 Descending Edmonton Center
06:28PM 50.2167 -112.3000 277° West 430 495 26,800 -1,980 Descending Edmonton Center
06:29PM 50.2500 -112.4667 287° West 420 483 24,900 -2,040 Descending Edmonton Center
06:30PM 50.3000 -112.6333 295° West 400 460 22,800 -1,980 Descending Edmonton Center
06:31PM 50.3167 -112.7833 280° West 390 449 21,000 -2,100 Descending Edmonton Center
06:32PM 50.3500 -112.9500 287° West 370 426 18,600 -2,040 Descending Edmonton Center
06:33PM 50.3833 -113.0833 291° West 360 414 17,000 -1,800 Descending Edmonton Center
06:34PM 50.4000 -113.2500 279° West 350 403 15,000 -1,920 Descending Edmonton Center
06:35PM 50.4500 -113.3667 304° West 340 391 13,200 -1,800 Descending Edmonton Center
06:36PM 50.5167 -113.4333 328° Northwest 320 368 11,500 -1,380 Descending Edmonton Center
06:37PM 50.6000 -113.5000 333° Northwest 290 334 10,500 -1,380 Descending Edmonton Center
06:38PM 50.6667 -113.5500 335° Northwest 270 311 8,800 -1,620 Descending Edmonton Center
06:39PM 50.7333 -113.6167 328° Northwest 270 311 7,300 -900 Descending Edmonton Center
06:40PM 50.8000 -113.6500 342° North 250 288 7,000 -420 Descending Edmonton Center
06:41PM 50.8667 -113.6833 342° North 250 288 6,500 -480 Descending Edmonton Center
06:42PM 50.9167 -113.7333 328° Northwest 240 276 6,100 -300 Descending Edmonton Center
06:43PM 50.9833 -113.7667 343° North 220 253 6,000 -60 Descending Edmonton Center
06:44PM 51.0167 -113.8333 308° West 180 207 6,000 -300 Level Edmonton Center
06:45PM 51.0500 -113.9167 302° West 190 219 5,400 -840 Descending Edmonton Center
06:46PM 51.0667 -113.9833 292° West 170 196 4,400 -900 Descending Edmonton Center
06:47PM 51.0833 -114.0333 298° West 140 161 3,600 -840 Descending Edmonton Center